Time;durP1;ratioP1;P1;durP2;ratioP2;P2;SDS_P1;SDS_P2;PMS_P1;PMS_P2;Temp;Humidity;BMP_temperature;BMP_pressure;BME280_temperature;BME280_humidity;BME280_pressure;Samples;Min_cycle;Max_cycle;Signal;HPM_P1;HPM_P2
2022/11/13 00:01:08;;;;;;;16.57;12.03;;;;;;;;;;5018322;28;20438;-43
2022/11/13 00:03:34;;;;;;;14.33;11.90;;;;;;;;;;5025319;28;20436;-44
2022/11/13 00:06:01;;;;;;;14.57;11.67;;;;;;;;;;5023320;28;20552;-45
2022/11/13 00:08:27;;;;;;;15.07;11.40;;;;;;;;;;5025138;28;20466;-42
2022/11/13 00:10:59;;;;;;;15.47;12.00;;;;;;;;;;5018232;28;20445;-43
2022/11/13 00:13:25;;;;;;;16.33;11.40;;;;;;;;;;5019207;28;20978;-43
2022/11/13 00:16:01;;;;;;;13.80;11.17;;;;;;;;;;5020820;28;20426;-44
2022/11/13 00:18:28;;;;;;;13.47;11.23;;;;;;;;;;5024904;28;20420;-43
2022/11/13 00:20:54;;;;;;;18.70;11.53;;;;;;;;;;5021164;28;20883;-42
2022/11/13 00:23:20;;;;;;;15.13;10.97;;;;;;;;;;5021284;28;20483;-43
2022/11/13 00:25:46;;;;;;;14.90;11.83;;;;;;;;;;5024486;28;20892;-43
2022/11/13 00:28:12;;;;;;;19.47;10.97;;;;;;;;;;5018586;28;20407;-42
2022/11/13 00:30:38;;;;;;;12.50;10.53;;;;;;;;;;5024346;28;20418;-43
2022/11/13 00:33:04;;;;;;;12.23;10.73;;;;;;;;;;5022725;28;20411;-43
2022/11/13 00:35:31;;;;;;;12.17;10.67;;;;;;;;;;5022648;28;20406;-43
2022/11/13 00:37:59;;;;;;;15.50;10.23;;;;;;;;;;5023098;28;20416;-44
2022/11/13 00:40:25;;;;;;;14.10;11.60;;;;;;;;;;5021376;28;20416;-43
2022/11/13 00:42:51;;;;;;;16.13;10.43;;;;;;;;;;5022399;28;20416;-43
2022/11/13 00:45:17;;;;;;;17.63;12.03;;;;;;;;;;5020987;28;20553;-44
2022/11/13 00:47:43;;;;;;;15.33;10.80;;;;;;;;;;5027287;28;20458;-43
2022/11/13 00:50:09;;;;;;;12.13;10.43;;;;;;;;;;5020858;28;20407;-43
2022/11/13 00:52:35;;;;;;;14.43;10.60;;;;;;;;;;5020039;28;20437;-43
2022/11/13 00:55:01;;;;;;;11.87;10.57;;;;;;;;;;5022378;28;20446;-43
2022/11/13 00:57:54;;;;;;;15.43;10.10;;;;;;;;;;5020674;28;20405;-43
2022/11/13 01:00:20;;;;;;;14.37;10.50;;;;;;;;;;5019841;28;20942;-43
2022/11/13 01:02:46;;;;;;;12.40;10.70;;;;;;;;;;5021260;28;20470;-43
2022/11/13 01:05:12;;;;;;;15.93;10.37;;;;;;;;;;5024751;28;20503;-44
2022/11/13 01:07:38;;;;;;;15.07;11.03;;;;;;;;;;5023306;28;20416;-43
2022/11/13 01:10:04;;;;;;;12.50;10.73;;;;;;;;;;5023581;28;20411;-44
2022/11/13 01:12:30;;;;;;;11.13;9.80;;;;;;;;;;5023799;28;20461;-43
2022/11/13 01:14:56;;;;;;;12.43;9.77;;;;;;;;;;5022473;28;20506;-43
2022/11/13 01:17:22;;;;;;;12.90;10.23;;;;;;;;;;5023499;28;20408;-46
2022/11/13 01:19:48;;;;;;;13.27;10.50;;;;;;;;;;5021692;28;20775;-43
2022/11/13 01:22:14;;;;;;;14.53;13.00;;;;;;;;;;5022689;28;20435;-43
2022/11/13 01:24:40;;;;;;;14.57;10.77;;;;;;;;;;5022104;28;20425;-46
2022/11/13 01:27:06;;;;;;;12.30;10.50;;;;;;;;;;5016148;28;20413;-43
2022/11/13 01:29:32;;;;;;;11.80;9.20;;;;;;;;;;5024113;28;20420;-43
2022/11/13 01:31:59;;;;;;;12.83;10.93;;;;;;;;;;5020545;28;20477;-43
2022/11/13 01:34:24;;;;;;;12.17;10.90;;;;;;;;;;5021578;28;20408;-43
2022/11/13 01:36:51;;;;;;;13.37;10.80;;;;;;;;;;5020714;28;20805;-43
2022/11/13 01:39:17;;;;;;;14.50;10.30;;;;;;;;;;5020395;28;20498;-44
2022/11/13 01:41:43;;;;;;;18.10;12.37;;;;;;;;;;5020290;28;20882;-45
2022/11/13 01:44:16;;;;;;;12.70;9.83;;;;;;;;;;5020594;28;20447;-45
2022/11/13 01:46:48;;;;;;;13.87;10.40;;;;;;;;;;5025559;28;20460;-46
2022/11/13 01:49:13;;;;;;;14.37;10.60;;;;;;;;;;5018952;28;20416;-45
2022/11/13 01:51:39;;;;;;;13.63;11.30;;;;;;;;;;5017324;28;21027;-43
2022/11/13 01:54:07;;;;;;;17.03;12.00;;;;;;;;;;5020560;28;20496;-45
2022/11/13 01:56:33;;;;;;;14.20;10.60;;;;;;;;;;5020334;28;20416;-46
2022/11/13 01:59:09;;;;;;;15.57;11.80;;;;;;;;;;5022820;28;20435;-45
2022/11/13 02:01:36;;;;;;;13.47;11.50;;;;;;;;;;5021567;28;20435;-45
2022/11/13 02:04:01;;;;;;;13.13;11.77;;;;;;;;;;5022695;28;20762;-45
2022/11/13 02:06:30;;;;;;;13.67;10.67;;;;;;;;;;5019392;28;20546;-43
2022/11/13 02:08:56;;;;;;;12.93;9.60;;;;;;;;;;5015738;28;20772;-45
2022/11/13 02:11:22;;;;;;;13.17;10.60;;;;;;;;;;5025586;28;20458;-45
2022/11/13 02:13:48;;;;;;;13.70;11.73;;;;;;;;;;5024708;28;20446;-45
2022/11/13 02:16:15;;;;;;;12.07;9.80;;;;;;;;;;5026610;28;20410;-45
2022/11/13 02:18:41;;;;;;;12.97;10.20;;;;;;;;;;5024197;28;20774;-45
2022/11/13 02:21:13;;;;;;;12.60;9.67;;;;;;;;;;5025571;28;20438;-45
2022/11/13 02:23:39;;;;;;;14.53;10.40;;;;;;;;;;5023993;28;20986;-45
2022/11/13 02:26:05;;;;;;;10.70;9.60;;;;;;;;;;5024269;28;20471;-46
2022/11/13 02:28:31;;;;;;;13.10;9.97;;;;;;;;;;5027798;28;20915;-46
2022/11/13 02:31:04;;;;;;;13.87;9.67;;;;;;;;;;5022246;28;20452;-45
2022/11/13 02:33:32;;;;;;;11.60;9.37;;;;;;;;;;5022595;28;20780;-45
2022/11/13 02:35:58;;;;;;;13.33;8.77;;;;;;;;;;5023972;28;20417;-46
2022/11/13 02:38:24;;;;;;;11.63;8.77;;;;;;;;;;5023756;28;20763;-45
2022/11/13 02:40:50;;;;;;;10.40;8.87;;;;;;;;;;5024269;28;20523;-45
2022/11/13 02:43:16;;;;;;;11.13;9.00;;;;;;;;;;5027686;28;20427;-45
2022/11/13 02:45:42;;;;;;;12.60;9.10;;;;;;;;;;5027034;28;20462;-45
2022/11/13 02:48:08;;;;;;;11.77;9.33;;;;;;;;;;5020708;28;20922;-45
2022/11/13 02:50:35;;;;;;;11.87;9.27;;;;;;;;;;5019684;28;20415;-45
2022/11/13 02:53:01;;;;;;;10.50;8.00;;;;;;;;;;5025881;28;20901;-45
2022/11/13 02:55:27;;;;;;;9.97;8.03;;;;;;;;;;5025912;28;20417;-45
2022/11/13 02:57:53;;;;;;;12.93;7.90;;;;;;;;;;5024711;28;20418;-45
2022/11/13 03:00:19;;;;;;;9.57;8.63;;;;;;;;;;5024993;28;20417;-45
2022/11/13 03:02:45;;;;;;;13.77;9.20;;;;;;;;;;5025357;28;20439;-45
2022/11/13 03:05:11;;;;;;;9.17;7.97;;;;;;;;;;5019911;28;20467;-45
2022/11/13 03:07:37;;;;;;;14.00;8.90;;;;;;;;;;5026933;28;20450;-45
2022/11/13 03:13:06;;;;;;;11.97;9.07;;;;;;;;;;5022687;28;20564;-44
2022/11/13 03:15:33;;;;;;;13.03;9.07;;;;;;;;;;5021960;28;20458;-44
2022/11/13 03:18:03;;;;;;;10.98;8.50;;;;;;;;;;5023935;28;20403;-44
2022/11/13 03:20:29;;;;;;;12.10;8.70;;;;;;;;;;5022909;28;20645;-44
2022/11/13 03:22:55;;;;;;;11.60;8.30;;;;;;;;;;5024533;28;20411;-44
2022/11/13 03:25:21;;;;;;;10.30;8.97;;;;;;;;;;5026720;28;20987;-45
2022/11/13 03:27:47;;;;;;;10.13;8.30;;;;;;;;;;5027036;28;20781;-45
2022/11/13 03:30:13;;;;;;;12.53;9.53;;;;;;;;;;5021110;28;20837;-44
2022/11/13 03:32:39;;;;;;;13.90;9.07;;;;;;;;;;5018931;28;20427;-44
2022/11/13 03:35:05;;;;;;;10.80;8.57;;;;;;;;;;5026185;28;20442;-44
2022/11/13 03:37:31;;;;;;;11.18;8.85;;;;;;;;;;5024922;28;20460;-44
2022/11/13 03:39:57;;;;;;;11.52;9.15;;;;;;;;;;5024838;28;20246;-44
2022/11/13 03:42:23;;;;;;;12.97;10.00;;;;;;;;;;5024890;28;20685;-44
2022/11/13 03:44:49;;;;;;;12.53;8.53;;;;;;;;;;5025028;28;20411;-44
2022/11/13 03:47:15;;;;;;;10.40;8.47;;;;;;;;;;5019892;28;20415;-45
2022/11/13 03:49:41;;;;;;;8.80;7.80;;;;;;;;;;5026494;28;20450;-44
2022/11/13 03:52:07;;;;;;;8.13;7.33;;;;;;;;;;5023055;28;20438;-44
2022/11/13 03:54:33;;;;;;;13.03;9.17;;;;;;;;;;5023015;28;20456;-44
2022/11/13 03:56:59;;;;;;;11.10;9.60;;;;;;;;;;5025170;28;20796;-44
2022/11/13 03:59:25;;;;;;;13.33;8.27;;;;;;;;;;5023396;28;20442;-44
2022/11/13 04:01:51;;;;;;;12.43;8.68;;;;;;;;;;5023330;28;20466;-44
2022/11/13 04:04:17;;;;;;;10.90;8.10;;;;;;;;;;5022844;28;20221;-44
2022/11/13 04:06:43;;;;;;;11.37;8.23;;;;;;;;;;5027913;28;20527;-44
2022/11/13 04:09:09;;;;;;;10.20;8.57;;;;;;;;;;5021464;28;20834;-44
2022/11/13 04:11:34;;;;;;;13.33;9.30;;;;;;;;;;5020375;28;20443;-44
2022/11/13 04:14:00;;;;;;;11.07;8.07;;;;;;;;;;5022884;28;20403;-45
2022/11/13 04:16:26;;;;;;;9.90;7.97;;;;;;;;;;5022591;28;20480;-44
2022/11/13 04:18:52;;;;;;;13.43;8.43;;;;;;;;;;5023570;28;20420;-44
2022/11/13 04:21:18;;;;;;;11.30;9.07;;;;;;;;;;5026057;28;20830;-44
2022/11/13 04:23:44;;;;;;;10.77;8.33;;;;;;;;;;5026104;28;20423;-44
2022/11/13 04:26:10;;;;;;;10.60;8.37;;;;;;;;;;5019970;28;20463;-44
2022/11/13 04:28:36;;;;;;;10.17;7.90;;;;;;;;;;5019030;28;20906;-44
2022/11/13 04:31:02;;;;;;;11.77;7.33;;;;;;;;;;5024607;28;20846;-44
2022/11/13 04:33:28;;;;;;;10.30;8.10;;;;;;;;;;5024152;28;20403;-44
2022/11/13 04:35:54;;;;;;;8.57;7.30;;;;;;;;;;5023028;28;20919;-46
2022/11/13 04:38:20;;;;;;;10.20;7.70;;;;;;;;;;5024548;28;20877;-44
2022/11/13 04:40:48;;;;;;;9.40;7.70;;;;;;;;;;5023968;28;20465;-44
2022/11/13 04:43:14;;;;;;;9.33;6.93;;;;;;;;;;5018905;28;20419;-44
2022/11/13 04:45:40;;;;;;;9.70;7.03;;;;;;;;;;5025544;28;20523;-43
2022/11/13 04:48:06;;;;;;;8.82;7.15;;;;;;;;;;5022622;28;20414;-44
2022/11/13 04:50:32;;;;;;;8.50;6.30;;;;;;;;;;5023170;28;20181;-44
2022/11/13 04:52:58;;;;;;;8.97;6.50;;;;;;;;;;5024004;28;20908;-44
2022/11/13 04:55:24;;;;;;;8.07;6.07;;;;;;;;;;5021870;28;20776;-44
2022/11/13 04:57:54;;;;;;;10.17;6.30;;;;;;;;;;5022743;28;20772;-44
2022/11/13 05:00:20;;;;;;;7.13;5.90;;;;;;;;;;5022145;28;20419;-44
2022/11/13 05:02:46;;;;;;;8.40;6.40;;;;;;;;;;5027683;28;20871;-44
2022/11/13 05:05:12;;;;;;;7.03;6.33;;;;;;;;;;5021879;28;20458;-43
2022/11/13 05:07:38;;;;;;;7.43;6.73;;;;;;;;;;5019846;28;20878;-44
2022/11/13 05:10:04;;;;;;;7.23;6.40;;;;;;;;;;5021380;28;20414;-44
2022/11/13 05:12:30;;;;;;;8.67;7.30;;;;;;;;;;5021669;28;20500;-44
2022/11/13 05:14:56;;;;;;;8.00;7.20;;;;;;;;;;5024325;28;21277;-44
2022/11/13 05:17:22;;;;;;;8.07;7.27;;;;;;;;;;5026605;28;20403;-44
2022/11/13 05:19:48;;;;;;;9.30;6.90;;;;;;;;;;5041354;28;20418;-44
2022/11/13 05:22:14;;;;;;;7.93;6.73;;;;;;;;;;5020486;28;20480;-45
2022/11/13 05:24:39;;;;;;;10.20;7.50;;;;;;;;;;5019778;28;20752;-44
2022/11/13 05:27:05;;;;;;;10.20;7.10;;;;;;;;;;5026519;28;20465;-43
2022/11/13 05:29:31;;;;;;;8.33;7.17;;;;;;;;;;5026730;28;20410;-44
2022/11/13 05:31:57;;;;;;;6.93;6.23;;;;;;;;;;5025423;28;20428;-44
2022/11/13 05:34:23;;;;;;;13.75;7.13;;;;;;;;;;5026224;28;20407;-44
2022/11/13 05:36:49;;;;;;;7.72;6.30;;;;;;;;;;5027426;28;20646;-44
2022/11/13 05:39:15;;;;;;;7.10;6.40;;;;;;;;;;5021531;28;20196;-45
2022/11/13 05:41:41;;;;;;;8.80;6.20;;;;;;;;;;5026563;28;20442;-44
2022/11/13 05:44:08;;;;;;;7.45;6.65;;;;;;;;;;5024650;28;20407;-44
2022/11/13 05:46:33;;;;;;;6.97;5.82;;;;;;;;;;5025253;28;20299;-46
2022/11/13 05:49:01;;;;;;;9.30;6.40;;;;;;;;;;5026787;28;20293;-44
2022/11/13 05:51:31;;;;;;;10.60;7.47;;;;;;;;;;5018204;28;20481;-44
2022/11/13 05:53:58;;;;;;;9.50;8.48;;;;;;;;;;5023814;28;20204;-44
2022/11/13 05:56:26;;;;;;;10.48;7.30;;;;;;;;;;5023470;28;20190;-45
2022/11/13 05:58:52;;;;;;;9.10;7.00;;;;;;;;;;5030617;28;20233;-42
2022/11/13 06:01:20;;;;;;;8.95;7.35;;;;;;;;;;5025118;28;20626;-44
2022/11/13 06:03:46;;;;;;;9.50;6.35;;;;;;;;;;5022445;28;20207;-44
2022/11/13 06:06:14;;;;;;;8.98;7.35;;;;;;;;;;5025282;28;20242;-44
2022/11/13 06:08:40;;;;;;;7.32;6.53;;;;;;;;;;5031427;28;20167;-42
2022/11/13 06:11:10;;;;;;;8.73;6.28;;;;;;;;;;5027414;28;20275;-43
2022/11/13 06:13:36;;;;;;;9.63;6.80;;;;;;;;;;5025596;28;20184;-43
2022/11/13 06:16:04;;;;;;;7.75;5.65;;;;;;;;;;5025301;28;20526;-43
2022/11/13 06:18:30;;;;;;;5.75;5.20;;;;;;;;;;5031312;28;20190;-43
2022/11/13 06:21:00;;;;;;;6.00;5.40;;;;;;;;;;5020246;28;20235;-43
2022/11/13 06:23:26;;;;;;;8.18;6.05;;;;;;;;;;5028413;28;20214;-42
2022/11/13 06:25:52;;;;;;;6.97;6.32;;;;;;;;;;5025471;28;20277;-43
2022/11/13 06:28:18;;;;;;;8.73;5.60;;;;;;;;;;5027503;28;20668;-43
2022/11/13 06:30:44;;;;;;;6.20;5.40;;;;;;;;;;5024570;28;20434;-42
2022/11/13 06:33:10;;;;;;;7.13;6.00;;;;;;;;;;5028582;28;20449;-42
2022/11/13 06:35:36;;;;;;;6.20;5.63;;;;;;;;;;5027446;28;20410;-42
2022/11/13 06:38:02;;;;;;;7.70;6.07;;;;;;;;;;5021628;28;20199;-43
2022/11/13 06:40:28;;;;;;;5.60;5.10;;;;;;;;;;5027770;28;20418;-42
2022/11/13 06:42:54;;;;;;;7.47;5.50;;;;;;;;;;5021236;28;20208;-42
2022/11/13 06:45:20;;;;;;;8.02;5.70;;;;;;;;;;5025163;28;20448;-45
2022/11/13 06:47:46;;;;;;;6.80;5.35;;;;;;;;;;5024797;28;20211;-42
2022/11/13 06:50:12;;;;;;;6.57;5.60;;;;;;;;;;5024685;28;20677;-43
2022/11/13 06:52:38;;;;;;;7.75;5.90;;;;;;;;;;5024598;28;20435;-42
2022/11/13 06:55:04;;;;;;;8.20;5.87;;;;;;;;;;5030020;28;20499;-42
2022/11/13 06:57:30;;;;;;;6.65;5.82;;;;;;;;;;5023911;28;20825;-42
2022/11/13 06:59:56;;;;;;;6.67;5.97;;;;;;;;;;5029407;28;20184;-54
2022/11/13 07:02:22;;;;;;;7.07;5.90;;;;;;;;;;5027546;28;20438;-42
2022/11/13 07:04:48;;;;;;;6.88;5.35;;;;;;;;;;5027870;28;20403;-42
2022/11/13 07:07:14;;;;;;;10.73;6.43;;;;;;;;;;5030185;28;20160;-42
2022/11/13 07:09:40;;;;;;;7.93;5.80;;;;;;;;;;5029711;28;20444;-42
2022/11/13 07:12:07;;;;;;;8.90;6.18;;;;;;;;;;5027447;28;20254;-42
2022/11/13 07:14:33;;;;;;;11.35;6.45;;;;;;;;;;5023812;28;20646;-42
2022/11/13 07:16:59;;;;;;;9.40;6.78;;;;;;;;;;5029693;28;20218;-48
2022/11/13 07:19:25;;;;;;;10.23;7.20;;;;;;;;;;5033572;28;20206;-43
2022/11/13 07:21:51;;;;;;;15.37;7.03;;;;;;;;;;5028161;28;20443;-42
2022/11/13 07:24:17;;;;;;;9.25;7.20;;;;;;;;;;5029657;28;20511;-50
2022/11/13 07:26:43;;;;;;;31.88;14.35;;;;;;;;;;5025477;28;20656;-42
2022/11/13 07:29:09;;;;;;;29.30;14.10;;;;;;;;;;5023016;28;20203;-44
2022/11/13 07:31:35;;;;;;;32.55;12.95;;;;;;;;;;5024394;28;20427;-43
2022/11/13 07:34:01;;;;;;;14.90;8.53;;;;;;;;;;5022624;28;20204;-44
2022/11/13 07:36:27;;;;;;;10.03;7.07;;;;;;;;;;5031020;28;20418;-44
2022/11/13 07:38:53;;;;;;;17.00;8.77;;;;;;;;;;5024049;28;20494;-45
2022/11/13 07:41:19;;;;;;;15.03;8.47;;;;;;;;;;5025954;28;20426;-42
2022/11/13 07:43:45;;;;;;;19.30;12.80;;;;;;;;;;5030112;28;20414;-42
2022/11/13 07:46:11;;;;;;;37.30;16.70;;;;;;;;;;5026690;28;20508;-42
2022/11/13 07:48:37;;;;;;;16.77;12.32;;;;;;;;;;5030875;28;20418;-44
2022/11/13 07:51:03;;;;;;;11.25;10.02;;;;;;;;;;5023420;28;20204;-43
2022/11/13 07:53:29;;;;;;;11.73;8.15;;;;;;;;;;5026172;28;20194;-42
2022/11/13 07:55:56;;;;;;;7.20;6.50;;;;;;;;;;5022625;28;20262;-42
2022/11/13 07:58:22;;;;;;;9.83;6.63;;;;;;;;;;5023327;28;20184;-42
2022/11/13 08:00:48;;;;;;;6.60;5.95;;;;;;;;;;5024269;28;20459;-43
2022/11/13 08:03:15;;;;;;;5.90;5.35;;;;;;;;;;5027639;28;20198;-44
2022/11/13 08:05:42;;;;;;;7.57;5.65;;;;;;;;;;5025905;28;20196;-44
2022/11/13 08:08:10;;;;;;;6.00;5.40;;;;;;;;;;5029207;28;20172;-43
2022/11/13 08:10:36;;;;;;;9.45;6.05;;;;;;;;;;5025685;28;20449;-43
2022/11/13 08:13:04;;;;;;;6.67;5.83;;;;;;;;;;5019553;28;20594;-44
2022/11/13 08:15:30;;;;;;;8.10;6.20;;;;;;;;;;5025878;28;20422;-43
2022/11/13 08:17:57;;;;;;;8.10;6.50;;;;;;;;;;5023825;28;20494;-45
2022/11/13 08:20:23;;;;;;;8.57;6.20;;;;;;;;;;5024507;28;20435;-46
2022/11/13 08:22:50;;;;;;;6.50;5.90;;;;;;;;;;5022699;28;20431;-46
2022/11/13 08:25:16;;;;;;;6.70;6.10;;;;;;;;;;5023618;28;20456;-43
2022/11/13 08:27:42;;;;;;;10.47;7.27;;;;;;;;;;5028654;28;20412;-42
2022/11/13 08:30:09;;;;;;;9.00;7.30;;;;;;;;;;5028646;28;20933;-44
2022/11/13 08:32:34;;;;;;;14.53;8.60;;;;;;;;;;5026021;28;20514;-42
2022/11/13 08:35:00;;;;;;;17.90;10.70;;;;;;;;;;5023562;28;20471;-42
2022/11/13 08:37:27;;;;;;;22.30;10.23;;;;;;;;;;5021481;28;20415;-42
2022/11/13 08:39:53;;;;;;;17.30;10.57;;;;;;;;;;5021670;28;20416;-42
2022/11/13 08:42:19;;;;;;;13.07;8.10;;;;;;;;;;5020746;28;20441;-42
2022/11/13 08:44:45;;;;;;;11.20;7.60;;;;;;;;;;5020387;28;20507;-42
2022/11/13 08:47:11;;;;;;;11.10;7.57;;;;;;;;;;5020267;28;20558;-43
2022/11/13 08:49:37;;;;;;;13.47;7.53;;;;;;;;;;5019114;28;20923;-42
2022/11/13 08:52:03;;;;;;;13.07;7.77;;;;;;;;;;5017750;28;20446;-42
2022/11/13 08:54:29;;;;;;;10.90;6.80;;;;;;;;;;5018618;28;20486;-42
2022/11/13 08:56:55;;;;;;;10.73;6.50;;;;;;;;;;5021904;28;20414;-42
2022/11/13 08:59:22;;;;;;;8.43;6.83;;;;;;;;;;5023740;28;20429;-42
2022/11/13 09:01:48;;;;;;;9.33;7.00;;;;;;;;;;5021364;28;20439;-42
2022/11/13 09:04:14;;;;;;;6.77;5.50;;;;;;;;;;5021418;28;20422;-43
2022/11/13 09:06:40;;;;;;;6.17;5.30;;;;;;;;;;5023976;28;20520;-43
2022/11/13 09:09:06;;;;;;;6.03;5.40;;;;;;;;;;5016889;28;20415;-43
2022/11/13 09:11:32;;;;;;;10.77;6.10;;;;;;;;;;5023991;28;20501;-42
2022/11/13 09:13:58;;;;;;;9.50;5.63;;;;;;;;;;5015333;28;20410;-43
2022/11/13 09:16:24;;;;;;;6.80;5.67;;;;;;;;;;5020150;28;20402;-43
2022/11/13 09:18:51;;;;;;;7.53;5.97;;;;;;;;;;5020780;28;20406;-43
2022/11/13 09:21:17;;;;;;;5.20;4.70;;;;;;;;;;5021321;28;20448;-43
2022/11/13 09:23:43;;;;;;;9.40;5.47;;;;;;;;;;5015717;28;20415;-44
2022/11/13 09:26:09;;;;;;;5.77;5.27;;;;;;;;;;5027838;28;20562;-43
2022/11/13 09:28:35;;;;;;;6.53;4.53;;;;;;;;;;5020536;28;20487;-44
2022/11/13 09:31:07;;;;;;;6.63;4.47;;;;;;;;;;5021833;28;20432;-43
2022/11/13 09:33:33;;;;;;;5.37;4.87;;;;;;;;;;5019489;28;20409;-43
2022/11/13 09:35:59;;;;;;;4.90;4.40;;;;;;;;;;5021334;28;20421;-44
2022/11/13 09:38:25;;;;;;;4.70;4.23;;;;;;;;;;5020194;28;20409;-43
2022/11/13 09:41:00;;;;;;;9.43;4.60;;;;;;;;;;5020551;28;20450;-43
2022/11/13 09:43:30;;;;;;;5.97;4.67;;;;;;;;;;5023800;28;20499;-43
2022/11/13 09:45:59;;;;;;;4.90;4.50;;;;;;;;;;5024269;28;20467;-43
2022/11/13 09:48:30;;;;;;;5.10;4.70;;;;;;;;;;5018330;28;20507;-43
2022/11/13 09:50:56;;;;;;;7.10;4.50;;;;;;;;;;5021060;28;20426;-43
2022/11/13 09:53:24;;;;;;;6.00;5.50;;;;;;;;;;5021731;28;20781;-43
2022/11/13 09:56:09;;;;;;;5.20;4.70;;;;;;;;;;5020488;28;20419;-43
2022/11/13 09:58:43;;;;;;;6.50;5.90;;;;;;;;;;5017227;28;20414;-42
2022/11/13 10:01:15;;;;;;;5.50;5.00;;;;;;;;;;5022567;28;20424;-43
2022/11/13 10:03:45;;;;;;;5.37;4.63;;;;;;;;;;5019785;28;20403;-43
2022/11/13 10:06:15;;;;;;;5.70;5.20;;;;;;;;;;5018312;28;20458;-43
2022/11/13 10:08:53;;;;;;;6.63;5.10;;;;;;;;;;5019406;28;20776;-43
2022/11/13 10:11:22;;;;;;;5.13;4.73;;;;;;;;;;5014166;28;20484;-43
2022/11/13 10:13:59;;;;;;;5.13;4.73;;;;;;;;;;5021553;28;20500;-44
2022/11/13 10:16:33;;;;;;;7.37;5.60;;;;;;;;;;5023065;28;20433;-43
2022/11/13 10:19:20;;;;;;;5.17;4.77;;;;;;;;;;5016099;28;20410;-43
2022/11/13 10:21:49;;;;;;;6.37;5.07;;;;;;;;;;5022569;28;20438;-44
2022/11/13 10:24:16;;;;;;;4.97;4.53;;;;;;;;;;5020849;28;20935;-43
2022/11/13 10:26:42;;;;;;;4.43;4.10;;;;;;;;;;5019702;28;20462;-44
2022/11/13 10:29:13;;;;;;;12.63;11.33;;;;;;;;;;5022896;28;20796;-44
2022/11/13 10:31:42;;;;;;;8.23;7.43;;;;;;;;;;5020191;28;20466;-44
2022/11/13 10:34:08;;;;;;;8.03;7.20;;;;;;;;;;5025767;28;20414;-44
2022/11/13 10:36:52;;;;;;;7.90;7.10;;;;;;;;;;5026639;28;20437;-44
2022/11/13 10:39:18;;;;;;;5.37;4.87;;;;;;;;;;5020539;28;20567;-44
2022/11/13 10:41:54;;;;;;;5.27;4.87;;;;;;;;;;5026137;28;20990;-44
2022/11/13 10:44:30;;;;;;;4.63;4.23;;;;;;;;;;5022851;28;20413;-44
2022/11/13 10:47:05;;;;;;;9.60;4.10;;;;;;;;;;5019774;28;20497;-44
2022/11/13 10:49:31;;;;;;;5.00;4.57;;;;;;;;;;5019908;28;20410;-44
2022/11/13 10:52:01;;;;;;;4.93;4.53;;;;;;;;;;5024354;28;20427;-44
2022/11/13 10:54:27;;;;;;;4.90;4.50;;;;;;;;;;5025561;28;20406;-44
2022/11/13 10:57:01;;;;;;;5.10;4.40;;;;;;;;;;5024048;28;20517;-44
2022/11/13 10:59:37;;;;;;;5.03;4.60;;;;;;;;;;5028622;28;20425;-44
2022/11/13 11:02:23;;;;;;;4.93;4.43;;;;;;;;;;5011687;28;20520;-45
2022/11/13 11:04:49;;;;;;;4.80;4.40;;;;;;;;;;5022595;28;20414;-45
2022/11/13 11:07:17;;;;;;;4.43;4.07;;;;;;;;;;5022746;28;20492;-45
2022/11/13 11:09:45;;;;;;;5.00;4.60;;;;;;;;;;5024593;28;20414;-45
2022/11/13 11:12:22;;;;;;;4.87;4.57;;;;;;;;;;5021022;28;20868;-45
2022/11/13 11:14:54;;;;;;;4.63;4.23;;;;;;;;;;5018292;28;20414;-44
2022/11/13 11:17:22;;;;;;;5.93;5.40;;;;;;;;;;5021314;28;20466;-44
2022/11/13 11:19:52;;;;;;;7.27;5.37;;;;;;;;;;5023759;28;20813;-45
2022/11/13 11:22:21;;;;;;;6.67;5.20;;;;;;;;;;5022283;28;20437;-45
2022/11/13 11:24:50;;;;;;;9.87;4.47;;;;;;;;;;5019386;28;20399;-44
2022/11/13 11:27:30;;;;;;;5.17;4.60;;;;;;;;;;5024321;28;20492;-45
2022/11/13 11:29:59;;;;;;;4.43;4.00;;;;;;;;;;5017592;28;20800;-44
2022/11/13 11:32:31;;;;;;;5.97;5.37;;;;;;;;;;5023512;28;20517;-45
2022/11/13 11:35:07;;;;;;;4.70;4.03;;;;;;;;;;5017403;28;20904;-44
2022/11/13 11:37:53;;;;;;;4.63;4.33;;;;;;;;;;5024985;28;20413;-44
2022/11/13 11:40:32;;;;;;;4.50;4.10;;;;;;;;;;5007510;28;20497;-45
2022/11/13 11:43:03;;;;;;;4.77;4.20;;;;;;;;;;5018825;28;20411;-45
2022/11/13 11:45:32;;;;;;;6.50;4.40;;;;;;;;;;5019089;28;20462;-44
2022/11/13 11:48:00;;;;;;;4.63;4.23;;;;;;;;;;5023835;28;20415;-45
2022/11/13 11:50:45;;;;;;;5.77;5.03;;;;;;;;;;5024253;28;20938;-44
2022/11/13 11:53:16;;;;;;;5.17;4.77;;;;;;;;;;5013775;28;20771;-45
2022/11/13 11:55:48;;;;;;;5.80;5.30;;;;;;;;;;5023599;28;20418;-44
2022/11/13 11:58:27;;;;;;;5.80;5.20;;;;;;;;;;5020485;28;20470;-44
2022/11/13 12:00:58;;;;;;;6.63;5.90;;;;;;;;;;5021324;28;20450;-44
2022/11/13 12:03:27;;;;;;;7.90;5.60;;;;;;;;;;5022021;28;20422;-44
2022/11/13 12:06:02;;;;;;;5.37;4.90;;;;;;;;;;5024187;28;21004;-44
2022/11/13 12:08:32;;;;;;;6.07;5.47;;;;;;;;;;5019225;28;20441;-44
2022/11/13 12:11:03;;;;;;;7.00;6.30;;;;;;;;;;5019513;28;20465;-44
2022/11/13 12:13:36;;;;;;;6.67;5.83;;;;;;;;;;5019116;28;20407;-44
2022/11/13 12:16:21;;;;;;;5.23;4.80;;;;;;;;;;5025959;28;20979;-44
2022/11/13 12:19:05;;;;;;;7.47;6.77;;;;;;;;;;5021257;28;20411;-43
2022/11/13 12:21:31;;;;;;;8.83;5.60;;;;;;;;;;5020787;28;20443;-44
2022/11/13 12:23:57;;;;;;;9.50;6.03;;;;;;;;;;5022919;28;20422;-43
2022/11/13 12:26:29;;;;;;;5.97;5.03;;;;;;;;;;5021078;28;20466;-43
2022/11/13 12:29:13;;;;;;;6.83;5.17;;;;;;;;;;5021483;28;20925;-44
2022/11/13 12:31:42;;;;;;;5.63;4.87;;;;;;;;;;5017473;28;20518;-44
2022/11/13 12:34:27;;;;;;;7.43;5.40;;;;;;;;;;5026297;28;20482;-43
2022/11/13 12:36:53;;;;;;;6.97;5.30;;;;;;;;;;5024672;28;20418;-44
2022/11/13 12:39:38;;;;;;;5.17;4.67;;;;;;;;;;5019501;28;20450;-44
2022/11/13 12:42:33;;;;;;;5.30;4.80;;;;;;;;;;5022439;28;20561;-43
2022/11/13 12:45:18;;;;;;;5.73;5.00;;;;;;;;;;5016142;28;20419;-44
2022/11/13 12:47:44;;;;;;;5.87;5.40;;;;;;;;;;5024179;28;20456;-44
2022/11/13 12:50:24;;;;;;;8.57;4.80;;;;;;;;;;5019453;28;20406;-44
2022/11/13 12:53:03;;;;;;;5.23;4.23;;;;;;;;;;5018074;28;20434;-43
2022/11/13 12:55:31;;;;;;;4.70;4.20;;;;;;;;;;5017134;28;20415;-44
2022/11/13 12:58:17;;;;;;;4.97;4.20;;;;;;;;;;5022346;28;20419;-43
2022/11/13 13:00:52;;;;;;;5.00;4.43;;;;;;;;;;5020973;28;20429;-43
2022/11/13 13:03:36;;;;;;;4.53;4.13;;;;;;;;;;5013541;28;20888;-43
2022/11/13 13:06:17;;;;;;;4.50;3.70;;;;;;;;;;5026442;28;20549;-43
2022/11/13 13:08:51;;;;;;;3.73;3.43;;;;;;;;;;5020521;28;20955;-43
2022/11/13 13:11:23;;;;;;;3.83;3.30;;;;;;;;;;5014575;28;20955;-44
2022/11/13 13:14:07;;;;;;;6.10;4.03;;;;;;;;;;5020918;28;20438;-43
2022/11/13 13:16:33;;;;;;;3.50;3.20;;;;;;;;;;5022332;28;20992;-44
2022/11/13 13:19:18;;;;;;;3.40;3.10;;;;;;;;;;5024070;28;20425;-43
2022/11/13 13:21:44;;;;;;;3.97;3.27;;;;;;;;;;5021917;28;20430;-44
2022/11/13 13:24:26;;;;;;;3.90;3.50;;;;;;;;;;5015973;28;20411;-44
2022/11/13 13:26:52;;;;;;;3.80;3.40;;;;;;;;;;5028266;28;20891;-44
2022/11/13 13:29:21;;;;;;;4.30;3.90;;;;;;;;;;5022036;28;20418;-44
2022/11/13 13:31:53;;;;;;;4.77;4.27;;;;;;;;;;5019369;28;20435;-44
2022/11/13 13:34:22;;;;;;;4.43;3.60;;;;;;;;;;5020916;28;20406;-44
2022/11/13 13:37:05;;;;;;;4.30;3.90;;;;;;;;;;5020471;28;20430;-44
2022/11/13 13:39:39;;;;;;;4.70;3.70;;;;;;;;;;5014954;28;20460;-44
2022/11/13 13:42:11;;;;;;;4.07;3.77;;;;;;;;;;5021986;28;20440;-44
2022/11/13 13:44:37;;;;;;;3.80;3.50;;;;;;;;;;5021483;28;20469;-44
2022/11/13 13:47:09;;;;;;;4.40;4.00;;;;;;;;;;5019641;28;20465;-44
2022/11/13 13:49:35;;;;;;;3.30;3.10;;;;;;;;;;5020689;28;20915;-45
2022/11/13 13:52:04;;;;;;;4.80;4.00;;;;;;;;;;5015411;28;20430;-44
2022/11/13 13:54:32;;;;;;;3.40;3.20;;;;;;;;;;5023240;28;20786;-44
2022/11/13 13:56:58;;;;;;;7.00;3.77;;;;;;;;;;5014214;28;20893;-44
2022/11/13 13:59:28;;;;;;;4.40;4.00;;;;;;;;;;5014893;28;21038;-44
2022/11/13 14:01:57;;;;;;;4.53;3.40;;;;;;;;;;5025140;28;20568;-43
2022/11/13 14:04:23;;;;;;;3.90;3.50;;;;;;;;;;5019173;28;20952;-44
2022/11/13 14:06:50;;;;;;;4.17;3.80;;;;;;;;;;5021829;28;20459;-43
2022/11/13 14:09:18;;;;;;;4.13;3.83;;;;;;;;;;5045228;28;20909;-44
2022/11/13 14:11:46;;;;;;;4.50;4.10;;;;;;;;;;5028766;28;20823;-44
2022/11/13 14:14:20;;;;;;;4.87;4.00;;;;;;;;;;5019032;28;20414;-43
2022/11/13 14:16:50;;;;;;;4.30;4.00;;;;;;;;;;5020955;28;20425;-43
2022/11/13 14:19:16;;;;;;;4.60;4.00;;;;;;;;;;5016624;28;20433;-43
2022/11/13 14:21:44;;;;;;;4.43;4.07;;;;;;;;;;5022895;28;20497;-43
2022/11/13 14:24:19;;;;;;;5.20;4.20;;;;;;;;;;5023127;28;20494;-43
2022/11/13 14:26:45;;;;;;;4.57;4.17;;;;;;;;;;5023425;28;20906;-43
2022/11/13 14:29:19;;;;;;;3.67;3.37;;;;;;;;;;5027241;28;20418;-43
2022/11/13 14:31:45;;;;;;;5.33;4.40;;;;;;;;;;5025311;28;20438;-44
2022/11/13 14:34:15;;;;;;;4.10;3.70;;;;;;;;;;5019052;28;20446;-43
2022/11/13 14:36:42;;;;;;;4.40;4.03;;;;;;;;;;5026744;28;20418;-43
2022/11/13 14:39:17;;;;;;;4.77;4.03;;;;;;;;;;5024102;28;20460;-42
2022/11/13 14:41:49;;;;;;;4.43;4.07;;;;;;;;;;5022397;28;20438;-42
2022/11/13 14:44:24;;;;;;;4.27;3.87;;;;;;;;;;5015883;28;20901;-43
2022/11/13 14:46:58;;;;;;;3.93;3.50;;;;;;;;;;5023797;28;20493;-43